createdAt,value
2019-05-13T00:03:28.200Z,13.60
2019-05-13T00:08:33.806Z,13.60
2019-05-13T00:13:38.350Z,13.70
2019-05-13T00:18:44.254Z,13.70
2019-05-13T00:23:48.344Z,13.70
2019-05-13T00:28:53.429Z,13.40
2019-05-13T00:33:57.518Z,13.20
2019-05-13T00:39:03.831Z,13.60
2019-05-13T00:44:07.523Z,13.20
2019-05-13T00:49:13.435Z,13.30
2019-05-13T00:54:17.671Z,13.20
2019-05-13T00:59:24.094Z,13.10
2019-05-13T01:04:28.225Z,13.20
2019-05-13T01:09:34.251Z,13.20
2019-05-13T01:14:38.740Z,13.20
2019-05-13T01:19:43.384Z,13.30
2019-05-13T01:24:47.606Z,13.20
2019-05-13T01:29:53.441Z,13.30
2019-05-13T01:34:57.135Z,13.20
2019-05-13T01:40:01.401Z,13.10
2019-05-13T01:45:05.667Z,13.00
2019-05-13T01:50:09.935Z,12.90
2019-05-13T01:55:14.683Z,13.00
2019-05-13T02:00:19.450Z,12.70
2019-05-13T02:05:24.247Z,12.90
2019-05-13T02:10:56.739Z,12.80
2019-05-13T02:16:00.983Z,12.80
2019-05-13T02:21:05.644Z,12.90
2019-05-13T02:26:09.632Z,12.70
2019-05-13T02:31:21.217Z,12.80
2019-05-13T02:36:22.543Z,12.60
2019-05-13T02:41:24.764Z,12.70
2019-05-13T02:46:28.708Z,12.50
2019-05-13T02:51:32.960Z,12.60
2019-05-13T02:56:36.967Z,12.70
2019-05-13T03:01:43.229Z,12.40
2019-05-13T03:06:47.121Z,12.20
2019-05-13T03:11:53.530Z,12.40
2019-05-13T03:17:22.347Z,12.50
2019-05-13T03:22:25.398Z,12.20
2019-05-13T03:27:33.291Z,12.40
2019-05-13T03:32:43.587Z,12.20
2019-05-13T03:37:42.383Z,12.30
2019-05-13T03:42:48.959Z,12.40
2019-05-13T03:47:54.996Z,12.50
2019-05-13T03:53:02.666Z,12.40
2019-05-13T03:58:04.674Z,11.90
2019-05-13T04:03:08.671Z,12.00
2019-05-13T04:08:13.330Z,12.00
2019-05-13T04:13:17.364Z,12.10
2019-05-13T04:18:23.421Z,11.80
2019-05-13T04:23:27.873Z,11.90
2019-05-13T04:28:33.250Z,11.90
2019-05-13T04:33:37.775Z,11.80
2019-05-13T04:38:44.105Z,11.90
2019-05-13T04:43:47.783Z,12.10
2019-05-13T04:48:53.021Z,12.00
2019-05-13T04:53:57.755Z,11.90
2019-05-13T04:59:03.034Z,12.10
2019-05-13T05:04:30.558Z,12.00
2019-05-13T05:15:37.170Z,11.80
2019-05-13T05:20:48.663Z,11.90
2019-05-13T05:26:02.315Z,11.80
2019-05-13T05:31:37.011Z,11.80
2019-05-13T05:37:38.008Z,11.90
2019-05-13T05:42:44.219Z,12.10
2019-05-13T05:47:51.598Z,11.80
2019-05-13T05:52:57.215Z,12.00
2019-05-13T05:58:02.922Z,12.00
2019-05-13T06:03:06.928Z,12.10
2019-05-13T06:08:11.499Z,12.30
2019-05-13T06:13:15.848Z,12.10
2019-05-13T06:18:22.257Z,12.20
2019-05-13T06:23:26.259Z,12.30
2019-05-13T06:28:32.234Z,12.40
2019-05-13T06:33:35.795Z,12.20
2019-05-13T06:38:42.484Z,12.40
2019-05-13T06:43:45.842Z,12.40
2019-05-13T06:48:52.029Z,12.50
2019-05-13T06:53:56.151Z,12.30
2019-05-13T06:59:01.494Z,12.70
2019-05-13T07:04:05.950Z,12.20
2019-05-13T07:09:11.865Z,12.80
2019-05-13T07:14:15.647Z,12.80
2019-05-13T07:19:19.816Z,12.60
2019-05-13T07:24:23.734Z,12.80
2019-05-13T07:29:27.716Z,12.60
2019-05-13T07:34:33.742Z,12.80
2019-05-13T07:39:38.145Z,12.90
2019-05-13T07:44:42.284Z,13.20
2019-05-13T07:49:46.711Z,13.20
2019-05-13T07:54:52.054Z,13.10
2019-05-13T07:59:56.039Z,13.30
2019-05-13T08:05:02.468Z,13.20
2019-05-13T08:10:06.722Z,13.40
2019-05-13T08:15:11.899Z,13.70
2019-05-13T08:20:16.132Z,13.90
2019-05-13T08:25:22.281Z,13.80
2019-05-13T08:30:26.215Z,14.20
2019-05-13T08:35:31.471Z,14.40
2019-05-13T08:40:35.808Z,14.40
2019-05-13T08:45:42.090Z,14.40
2019-05-13T08:50:45.914Z,14.60
2019-05-13T08:55:51.740Z,14.60
2019-05-13T09:00:58.959Z,14.90
2019-05-13T09:06:03.040Z,14.70
2019-05-13T09:11:07.968Z,15.00
2019-05-13T09:16:13.349Z,15.00
2019-05-13T09:21:18.017Z,15.30
2019-05-13T09:26:22.582Z,15.40
2019-05-13T09:31:26.727Z,15.50
2019-05-13T09:36:32.364Z,15.50
2019-05-13T09:41:40.906Z,15.80
2019-05-13T09:46:42.662Z,15.80
2019-05-13T09:51:47.054Z,15.90
2019-05-13T09:56:51.853Z,15.90
2019-05-13T10:01:56.076Z,16.20
2019-05-13T10:07:02.102Z,16.20
2019-05-13T10:12:06.108Z,16.30
2019-05-13T10:17:12.771Z,16.40
2019-05-13T10:22:16.344Z,16.70
2019-05-13T10:27:22.281Z,16.80
2019-05-13T10:32:27.098Z,16.60
2019-05-13T10:37:31.612Z,16.50
2019-05-13T10:42:35.868Z,16.50
2019-05-13T10:47:42.138Z,16.80
2019-05-13T10:52:45.290Z,17.10
2019-05-13T10:57:51.393Z,16.90
2019-05-13T11:02:55.267Z,16.70
2019-05-13T11:08:01.663Z,16.90
2019-05-13T11:13:06.054Z,16.80
2019-05-13T11:18:18.988Z,16.70
2019-05-13T11:23:17.507Z,17.10
2019-05-13T11:28:21.434Z,16.90
2019-05-13T11:33:25.275Z,17.10
2019-05-13T11:38:32.426Z,17.10
2019-05-13T11:43:35.464Z,17.60
2019-05-13T11:48:41.820Z,17.20
2019-05-13T11:53:45.244Z,17.00
2019-05-13T11:58:53.144Z,17.40
2019-05-13T12:03:55.139Z,17.50
2019-05-13T12:09:02.788Z,17.20
2019-05-13T12:14:05.314Z,17.10
2019-05-13T12:19:11.866Z,17.50
2019-05-13T12:24:15.375Z,17.50
2019-05-13T12:29:19.520Z,17.30
2019-05-13T12:34:23.766Z,17.20
2019-05-13T12:39:27.682Z,17.30
2019-05-13T12:44:31.694Z,17.30
2019-05-13T12:49:36.746Z,17.40
2019-05-13T12:54:43.720Z,17.70
2019-05-13T12:59:47.042Z,17.50
2019-05-13T13:05:08.733Z,17.50
2019-05-13T13:09:57.182Z,17.60
2019-05-13T13:15:20.295Z,17.70
2019-05-13T13:20:09.695Z,17.70
2019-05-13T13:25:15.950Z,17.50
2019-05-13T13:30:20.318Z,17.80
2019-05-13T13:35:25.182Z,17.60
2019-05-13T13:40:34.221Z,17.50
2019-05-13T13:46:06.142Z,17.70
2019-05-13T13:50:44.384Z,17.70
2019-05-13T13:55:47.020Z,17.60
2019-05-13T14:01:05.519Z,17.80
2019-05-13T14:05:57.144Z,17.60
2019-05-13T14:11:02.099Z,17.60
2019-05-13T14:16:21.498Z,17.80
2019-05-13T14:21:12.111Z,17.90
2019-05-13T14:26:16.343Z,17.90
2019-05-13T14:31:21.392Z,17.80
2019-05-13T14:36:25.907Z,17.60
2019-05-13T14:41:31.268Z,18.10
2019-05-13T14:46:46.263Z,17.80
2019-05-13T14:51:41.679Z,17.80
2019-05-13T14:56:46.007Z,18.10
2019-05-13T15:01:51.881Z,17.80
2019-05-13T15:06:56.010Z,17.80
2019-05-13T15:12:02.025Z,17.60
2019-05-13T15:17:07.572Z,17.70
2019-05-13T15:22:15.554Z,17.60
2019-05-13T15:27:17.671Z,18.00
2019-05-13T15:32:21.906Z,17.90
2019-05-13T15:37:26.643Z,18.30
2019-05-13T15:42:31.936Z,18.40
2019-05-13T15:47:36.055Z,18.40
2019-05-13T15:52:42.924Z,18.70
2019-05-13T15:57:45.769Z,18.70
2019-05-13T16:02:52.083Z,18.80
2019-05-13T16:07:55.932Z,18.80
2019-05-13T16:13:01.744Z,18.70
2019-05-13T16:18:05.812Z,18.90
2019-05-13T16:23:12.165Z,18.80
2019-05-13T16:28:15.978Z,18.40
2019-05-13T16:33:20.276Z,18.40
2019-05-13T16:38:24.502Z,18.30
2019-05-13T16:43:28.755Z,18.20
2019-05-13T16:48:32.903Z,18.50
2019-05-13T16:53:36.751Z,18.30
2019-05-13T16:58:41.757Z,18.20
2019-05-13T17:03:46.184Z,18.40
2019-05-13T17:08:51.624Z,18.40
2019-05-13T17:13:56.201Z,18.50
2019-05-13T17:19:01.414Z,18.30
2019-05-13T17:24:05.605Z,18.60
2019-05-13T17:29:11.776Z,18.30
2019-05-13T17:34:15.322Z,18.60
2019-05-13T17:39:21.343Z,18.50
2019-05-13T17:44:25.270Z,18.70
2019-05-13T17:49:31.824Z,18.60
2019-05-13T17:54:35.942Z,18.80
2019-05-13T17:59:41.816Z,18.70
2019-05-13T18:04:45.843Z,18.50
2019-05-13T18:09:51.985Z,18.50
2019-05-13T18:14:55.899Z,18.70
2019-05-13T18:20:02.416Z,18.30
2019-05-13T18:25:05.839Z,18.60
2019-05-13T18:30:11.560Z,18.40
2019-05-13T18:35:16.316Z,18.30
2019-05-13T18:40:21.935Z,18.20
2019-05-13T18:45:26.527Z,18.10
2019-05-13T18:50:31.377Z,17.70
2019-05-13T18:55:35.479Z,18.10
2019-05-13T19:00:41.471Z,17.80
2019-05-13T19:05:45.307Z,17.50
2019-05-13T19:10:49.467Z,17.70
2019-05-13T19:15:53.659Z,17.70
2019-05-13T19:20:57.853Z,17.60
2019-05-13T19:26:02.102Z,17.40
2019-05-13T19:31:06.676Z,17.50
2019-05-13T19:36:11.800Z,17.60
2019-05-13T19:41:18.994Z,17.40
2019-05-13T19:46:21.459Z,17.00
2019-05-13T19:51:28.206Z,17.00
2019-05-13T19:56:31.991Z,16.90
2019-05-13T20:01:36.378Z,16.80
2019-05-13T20:06:41.471Z,16.80
2019-05-13T20:11:45.890Z,16.80
2019-05-13T20:16:52.461Z,16.80
2019-05-13T20:21:56.271Z,16.60
2019-05-13T20:27:01.707Z,16.70
2019-05-13T20:32:05.734Z,16.40
2019-05-13T20:37:12.255Z,16.40
2019-05-13T20:42:16.791Z,16.30
2019-05-13T20:47:21.343Z,16.10
2019-05-13T20:52:25.631Z,16.30
2019-05-13T20:57:29.478Z,15.80
2019-05-13T21:02:33.622Z,15.70
2019-05-13T21:07:37.879Z,15.90
2019-05-13T21:12:42.620Z,15.80
2019-05-13T21:17:46.836Z,15.90
2019-05-13T21:22:51.716Z,15.50
2019-05-13T21:27:56.030Z,15.40
2019-05-13T21:33:02.115Z,15.40
2019-05-13T21:38:06.124Z,15.60
2019-05-13T21:43:10.038Z,15.40
2019-05-13T21:48:14.615Z,15.50
2019-05-13T21:53:21.735Z,15.50
2019-05-13T21:58:24.902Z,15.20
2019-05-13T22:03:33.138Z,15.30
2019-05-13T22:08:34.522Z,15.20
2019-05-13T22:13:38.374Z,15.00
2019-05-13T22:18:42.559Z,15.30
2019-05-13T22:23:46.563Z,14.80
2019-05-13T22:28:51.218Z,14.80
2019-05-13T22:33:55.987Z,14.80
2019-05-13T22:39:01.971Z,14.90
2019-05-13T22:44:05.803Z,14.80
2019-05-13T22:49:11.601Z,14.90
2019-05-13T22:54:15.767Z,15.00
2019-05-13T22:59:21.488Z,14.70
2019-05-13T23:04:26.095Z,14.50
2019-05-13T23:09:32.216Z,14.80
2019-05-13T23:14:36.003Z,14.60
2019-05-13T23:19:41.492Z,14.30
2019-05-13T23:24:45.446Z,14.30
2019-05-13T23:29:51.702Z,14.30
2019-05-13T23:34:56.091Z,14.50
2019-05-13T23:40:01.451Z,14.20
2019-05-13T23:45:05.991Z,14.40
2019-05-13T23:50:12.481Z,14.30
2019-05-13T23:55:16.578Z,14.30
